Terminal Aerodrome Forecast
Issued by NWS Sioux Falls, SD

Home | Current Version | Previous Version | Text Only | Print | Product List | Glossary Off
Versions: 1 2 3 4 5 6 7 8 9 10 11 12 13 14 15 16 17 18 19 20 21 22 23 24 25 26

000
FTUS43 KFSD 291133
TAFSUX
TAF
KSUX 291133Z 2912/3012 33022G30KT P6SM OVC018
     FM291400 33020G27KT P6SM BKN020
     FM292000 34016G23KT P6SM SCT025
     FM300000 34009KT P6SM FEW200=

USA.gov is the U.S. government's official web portal to all federal, state and local government web resources and services.